createdAt,value
2023-02-16T00:02:38.783Z,24.6
2023-02-16T00:08:17.923Z,24.1
2023-02-16T00:13:40.337Z,23.7
2023-02-16T00:19:03.025Z,23.4
2023-02-16T00:24:25.139Z,23.3
2023-02-16T00:30:03.399Z,23.1
2023-02-16T00:35:42.474Z,23.1
2023-02-16T00:41:04.276Z,22.9
2023-02-16T00:46:11.317Z,22.9
2023-02-16T00:51:42.630Z,22.9
2023-02-16T00:57:03.652Z,22.8
2023-02-16T01:02:41.973Z,22.8
2023-02-16T01:08:20.029Z,22.7
2023-02-16T01:13:56.446Z,22.7
2023-02-16T01:19:32.747Z,22.7
2023-02-16T01:24:55.120Z,22.7
2023-02-16T01:30:33.419Z,22.6
2023-02-16T01:36:12.237Z,22.6
2023-02-16T01:41:49.365Z,22.6
2023-02-16T01:47:11.897Z,22.6
2023-02-16T01:52:48.832Z,22.6
2023-02-16T01:58:25.767Z,22.6
2023-02-16T02:04:03.862Z,22.6
2023-02-16T02:09:40.543Z,22.6
2023-02-16T02:15:17.932Z,22.6
2023-02-16T02:20:40.705Z,22.5
2023-02-16T02:26:02.149Z,22.5
2023-02-16T02:31:40.778Z,22.5
2023-02-16T02:37:18.797Z,22.5
2023-02-16T02:42:56.760Z,22.5
2023-02-16T02:48:33.870Z,22.5
2023-02-16T02:53:55.527Z,22.4
2023-02-16T02:59:32.295Z,22.5
2023-02-16T03:04:23.074Z,22.4
2023-02-16T03:09:45.600Z,22.4
2023-02-16T03:15:07.407Z,22.4
2023-02-16T03:20:29.473Z,22.4
2023-02-16T03:26:06.920Z,22.4
2023-02-16T03:31:46.169Z,22.6
2023-02-16T03:37:24.027Z,22.6
2023-02-16T03:43:01.707Z,22.6
2023-02-16T03:48:39.036Z,22.6
2023-02-16T03:53:45.126Z,22.5
2023-02-16T03:59:23.511Z,22.5
2023-02-16T04:04:48.190Z,22.4
2023-02-16T04:10:25.900Z,22.4
2023-02-16T04:16:05.706Z,22.4
2023-02-16T04:21:42.878Z,22.4
2023-02-16T04:27:04.407Z,22.3
2023-02-16T04:32:43.943Z,22.4
2023-02-16T04:38:22.276Z,22.3
2023-02-16T04:43:45.004Z,22.3
2023-02-16T04:49:23.044Z,22.3
2023-02-16T04:55:00.437Z,22.3
2023-02-16T05:00:22.134Z,22.2
2023-02-16T05:06:01.000Z,22.2
2023-02-16T05:11:38.540Z,22.2
2023-02-16T05:17:17.278Z,22.1
2023-02-16T05:22:39.756Z,22.1
2023-02-16T05:28:18.446Z,22.1
2023-02-16T05:33:59.589Z,21.9
2023-02-16T05:39:37.881Z,21.9
2023-02-16T05:45:15.459Z,21.8
2023-02-16T05:50:54.420Z,21.8
2023-02-16T05:56:31.589Z,21.8
2023-02-16T06:02:09.556Z,21.7
2023-02-16T06:07:48.275Z,21.7
2023-02-16T06:13:24.462Z,21.6
2023-02-16T06:19:01.406Z,21.6
2023-02-16T06:24:38.412Z,21.6
2023-02-16T06:30:16.835Z,21.6
2023-02-16T06:35:56.586Z,21.6
2023-02-16T06:41:34.615Z,21.6
2023-02-16T06:47:12.656Z,21.6
2023-02-16T06:52:51.677Z,21.5
2023-02-16T06:58:16.864Z,21.4
2023-02-16T07:03:56.947Z,21.5
2023-02-16T07:09:17.574Z,21.4
2023-02-16T07:15:02.802Z,33.4
2023-02-16T07:20:40.748Z,34.4
2023-02-16T07:26:17.170Z,32.8
2023-02-16T07:31:56.117Z,34.7
2023-02-16T07:37:34.517Z,38.6
2023-02-16T07:43:11.745Z,40.1
2023-02-16T07:48:50.282Z,40.9
2023-02-16T07:54:27.714Z,41.9
2023-02-16T08:00:05.715Z,42.6
2023-02-16T08:05:47.976Z,43.7
2023-02-16T08:11:27.273Z,44.6
2023-02-16T08:17:09.134Z,45.5
2023-02-16T08:23:13.334Z,46.3
2023-02-16T08:28:20.628Z,47.1
2023-02-16T08:33:43.727Z,47.9
2023-02-16T08:39:21.526Z,48.6
2023-02-16T08:45:00.194Z,49.2
2023-02-16T08:50:37.852Z,49.8
2023-02-16T08:56:17.412Z,50.3
2023-02-16T09:01:58.178Z,50.8
2023-02-16T09:07:35.464Z,51.4
2023-02-16T09:23:29.151Z,52.9
2023-02-16T09:29:06.788Z,53.3
2023-02-16T09:34:44.731Z,53.9
2023-02-16T09:40:21.196Z,54.4
2023-02-16T09:45:59.086Z,55
2023-02-16T09:52:07.709Z,55.4
2023-02-16T09:57:45.763Z,56
2023-02-16T10:03:09.309Z,56.5
2023-02-16T10:08:16.229Z,56.9
2023-02-16T10:13:53.601Z,57.4
2023-02-16T10:19:32.854Z,57.9
2023-02-16T10:25:09.261Z,58.5
2023-02-16T10:30:46.111Z,58.8
2023-02-16T10:36:24.563Z,59.3
2023-02-16T10:42:02.314Z,59.8
2023-02-16T10:47:42.178Z,60.3
2023-02-16T10:53:04.465Z,60.7
2023-02-16T10:58:42.037Z,61.1
2023-02-16T11:04:20.714Z,61.5
2023-02-16T11:09:45.045Z,61.9
2023-02-16T11:15:22.688Z,62.3
2023-02-16T11:20:59.632Z,62.6
2023-02-16T11:26:36.225Z,63
2023-02-16T11:32:15.075Z,63.4
2023-02-16T11:37:52.043Z,63.6
2023-02-16T11:43:44.684Z,63.9
2023-02-16T11:49:07.643Z,64.1
2023-02-16T11:54:44.616Z,64.3
2023-02-16T12:00:22.143Z,64.6
2023-02-16T12:06:01.714Z,64.9
2023-02-16T12:11:39.567Z,65.1
2023-02-16T12:17:18.040Z,65.3
2023-02-16T12:22:56.366Z,65.4
2023-02-16T12:28:33.320Z,65.6
2023-02-16T12:34:10.900Z,65.7
2023-02-16T12:39:50.000Z,65.7
2023-02-16T12:45:29.474Z,65.8
2023-02-16T12:50:55.473Z,65.8
2023-02-16T12:56:33.603Z,65.8
2023-02-16T13:02:11.845Z,65.8
2023-02-16T13:07:52.569Z,65.7
2023-02-16T13:13:30.114Z,65.6
2023-02-16T13:19:16.341Z,65.5
2023-02-16T13:24:58.011Z,65.4
2023-02-16T13:30:38.382Z,65.2
2023-02-16T13:36:19.458Z,65
2023-02-16T13:41:56.919Z,64.7
2023-02-16T13:47:34.883Z,64.4
2023-02-16T13:52:55.409Z,64.1
2023-02-16T13:58:17.454Z,63.7
2023-02-16T14:03:39.530Z,63.3
2023-02-16T14:09:17.343Z,62.8
2023-02-16T14:14:54.871Z,62.3
2023-02-16T14:20:32.547Z,61.8
2023-02-16T14:26:11.451Z,61.3
2023-02-16T14:31:49.344Z,60.7
2023-02-16T14:37:28.276Z,60
2023-02-16T14:43:27.571Z,59.3
2023-02-16T14:49:05.376Z,58.5
2023-02-16T14:54:43.428Z,56.3
2023-02-16T15:00:22.324Z,52.9
2023-02-16T15:05:44.833Z,49.6
2023-02-16T15:11:21.829Z,47.5
2023-02-16T15:16:58.707Z,45.8
2023-02-16T15:22:36.494Z,44.6
2023-02-16T15:28:14.266Z,43.4
2023-02-16T15:33:54.488Z,42.5
2023-02-16T15:39:21.261Z,41.7
2023-02-16T15:45:29.256Z,40.8
2023-02-16T15:51:09.624Z,39.8
2023-02-16T15:56:30.933Z,39.1
2023-02-16T16:02:16.360Z,38.4
2023-02-16T16:07:53.598Z,37.8
2023-02-16T16:13:15.287Z,37.3
2023-02-16T16:18:38.664Z,36.8
2023-02-16T16:24:17.695Z,36.3
2023-02-16T16:29:39.264Z,35.8
2023-02-16T16:35:18.018Z,35.4
2023-02-16T16:41:10.248Z,34.9
2023-02-16T16:46:31.988Z,34.6
2023-02-16T16:52:09.528Z,34.3
2023-02-16T16:57:47.618Z,33.9
2023-02-16T17:03:09.231Z,33.7
2023-02-16T17:08:46.724Z,33.4
2023-02-16T17:14:24.481Z,33.1
2023-02-16T17:20:01.502Z,32.9
2023-02-16T17:25:31.696Z,32.8
2023-02-16T17:31:10.314Z,32.6
2023-02-16T17:36:32.413Z,32.3
2023-02-16T17:42:10.263Z,32.1
2023-02-16T17:47:49.228Z,31.7
2023-02-16T17:52:55.245Z,31.3
2023-02-16T17:58:18.538Z,30.9
2023-02-16T18:03:43.668Z,30.6
2023-02-16T18:09:21.154Z,30.4
2023-02-16T18:14:59.264Z,30.1
2023-02-16T18:20:24.294Z,29.9
2023-02-16T18:26:17.086Z,29.7
2023-02-16T18:32:09.430Z,29.4
2023-02-16T18:37:49.753Z,29.2
2023-02-16T18:42:55.988Z,29
2023-02-16T18:48:35.078Z,28.9
2023-02-16T18:54:12.710Z,28.8
2023-02-16T18:59:50.125Z,28.7
2023-02-16T19:05:27.902Z,28.6
2023-02-16T19:11:05.633Z,28.5
2023-02-16T19:16:42.828Z,28.4
2023-02-16T19:22:20.675Z,28.4
2023-02-16T19:27:59.296Z,28.3
2023-02-16T19:33:21.144Z,28.1
2023-02-16T19:38:43.357Z,28.1
2023-02-16T19:44:05.868Z,27.9
2023-02-16T19:49:27.693Z,27.9
2023-02-16T20:00:28.026Z,27.7
2023-02-16T20:05:52.997Z,27.6
2023-02-16T20:11:30.659Z,27.5
2023-02-16T20:17:08.180Z,27.4
2023-02-16T20:22:29.159Z,27.3
2023-02-16T20:28:07.459Z,26.8
2023-02-16T20:33:44.956Z,26.3
2023-02-16T20:38:51.282Z,25.6
2023-02-16T20:44:13.222Z,24.9
2023-02-16T20:49:20.089Z,24.1
2023-02-16T20:54:57.688Z,23.5
2023-02-16T21:00:49.356Z,22.9
2023-02-16T21:06:27.398Z,22.6
2023-02-16T21:12:05.233Z,22.2
2023-02-16T21:17:27.504Z,21.9
2023-02-16T21:23:17.495Z,21.6
2023-02-16T21:28:54.155Z,21.4
2023-02-16T21:34:31.426Z,21.3
2023-02-16T21:44:59.747Z,20.9
2023-02-16T21:50:37.807Z,20.8
2023-02-16T21:55:59.080Z,20.8
2023-02-16T22:01:36.453Z,20.6
2023-02-16T22:07:14.673Z,20.6
2023-02-16T22:12:52.484Z,20.4
2023-02-16T22:18:29.752Z,20.4
2023-02-16T22:24:10.502Z,20.3
2023-02-16T22:29:47.565Z,20.3
2023-02-16T22:35:25.675Z,20.2
2023-02-16T22:41:03.639Z,20.2
2023-02-16T22:46:42.188Z,20.1
2023-02-16T22:52:19.286Z,20.1
2023-02-16T22:57:43.273Z,20
2023-02-16T23:03:21.322Z,19.9
2023-02-16T23:08:43.202Z,19.9
2023-02-16T23:14:05.321Z,19.9
2023-02-16T23:19:43.128Z,19.9
2023-02-16T23:25:20.158Z,19.8
2023-02-16T23:30:57.243Z,19.8
2023-02-16T23:36:34.463Z,19.8
2023-02-16T23:42:12.018Z,19.8
2023-02-16T23:47:49.641Z,19.8
2023-02-16T23:53:27.324Z,19.8
2023-02-16T23:59:04.422Z,19.8
